createdAt,value
2018-08-19T00:01:30.649Z,5.90
2018-08-19T00:03:59.913Z,5.83
2018-08-19T00:06:28.405Z,5.87
2018-08-19T00:09:01.323Z,5.33
2018-08-19T00:11:30.027Z,5.47
2018-08-19T00:13:58.611Z,5.37
2018-08-19T00:16:27.642Z,5.63
2018-08-19T00:18:56.215Z,5.33
2018-08-19T00:21:24.770Z,5.10
2018-08-19T00:23:53.353Z,5.57
2018-08-19T00:26:21.909Z,4.43
2018-08-19T00:28:51.017Z,5.53
2018-08-19T00:31:19.568Z,6.13
2018-08-19T00:33:48.004Z,5.33
2018-08-19T00:36:27.059Z,5.40
2018-08-19T00:38:56.859Z,5.70
2018-08-19T00:41:25.489Z,5.53
2018-08-19T00:43:54.524Z,6.00
2018-08-19T00:46:32.938Z,5.90
2018-08-19T00:49:02.105Z,5.37
2018-08-19T00:51:30.606Z,5.40
2018-08-19T00:54:00.040Z,5.53
2018-08-19T00:56:28.558Z,5.43
2018-08-19T00:58:57.210Z,5.40
2018-08-19T01:01:35.121Z,5.53
2018-08-19T01:04:05.117Z,5.37
2018-08-19T01:06:38.730Z,5.10
2018-08-19T01:09:07.802Z,5.37
2018-08-19T01:11:36.961Z,5.33
2018-08-19T01:14:10.066Z,5.07
2018-08-19T01:16:38.568Z,5.77
2018-08-19T01:19:07.422Z,5.90
2018-08-19T01:21:35.969Z,5.80
2018-08-19T01:24:07.757Z,5.27
2018-08-19T01:26:37.548Z,5.73
2018-08-19T01:29:07.783Z,6.10
2018-08-19T01:31:36.617Z,5.40
2018-08-19T01:34:07.107Z,5.73
2018-08-19T01:36:35.628Z,5.60
2018-08-19T01:39:07.569Z,6.00
2018-08-19T01:41:42.834Z,6.10
2018-08-19T01:44:13.359Z,6.30
2018-08-19T01:46:47.094Z,5.67
2018-08-19T01:49:15.936Z,6.30
2018-08-19T01:51:44.903Z,6.20
2018-08-19T01:54:17.403Z,6.03
2018-08-19T01:56:45.907Z,6.53
2018-08-19T01:59:14.508Z,6.20
2018-08-19T02:01:49.781Z,5.43
2018-08-19T02:04:19.257Z,6.03
2018-08-19T02:06:47.749Z,6.03
2018-08-19T02:09:17.631Z,6.43
2018-08-19T02:11:49.991Z,6.70
2018-08-19T02:14:22.723Z,5.80
2018-08-19T02:16:52.057Z,6.70
2018-08-19T02:19:20.657Z,6.73
2018-08-19T02:21:50.074Z,6.30
2018-08-19T02:24:19.646Z,6.97
2018-08-19T02:26:48.912Z,7.53
2018-08-19T02:29:31.774Z,6.27
2018-08-19T02:32:03.606Z,7.97
2018-08-19T02:34:34.340Z,7.03
2018-08-19T02:37:06.235Z,6.67
2018-08-19T02:39:37.147Z,6.93
2018-08-19T02:42:17.261Z,7.10
2018-08-19T02:44:46.257Z,7.53
2018-08-19T02:47:14.759Z,7.47
2018-08-19T02:49:43.350Z,6.60
2018-08-19T02:52:16.337Z,6.97
2018-08-19T02:54:44.822Z,6.77
2018-08-19T02:57:13.749Z,7.00
2018-08-19T02:59:42.288Z,7.00
2018-08-19T03:02:28.744Z,7.13
2018-08-19T03:04:58.082Z,7.57
2018-08-19T03:07:27.850Z,7.33
2018-08-19T03:10:01.836Z,7.50
2018-08-19T03:12:30.798Z,6.70
2018-08-19T03:14:59.701Z,8.27
2018-08-19T03:17:29.204Z,7.23
2018-08-19T03:19:58.800Z,7.60
2018-08-19T03:22:27.999Z,6.93
2018-08-19T03:24:58.229Z,8.80
2018-08-19T03:27:26.811Z,7.07
2018-08-19T03:30:00.561Z,7.93
2018-08-19T03:32:29.035Z,8.00
2018-08-19T03:35:06.402Z,8.13
2018-08-19T03:37:35.647Z,7.80
2018-08-19T03:40:05.286Z,8.80
2018-08-19T03:42:33.810Z,8.50
2018-08-19T03:45:08.860Z,8.80
2018-08-19T03:47:37.430Z,9.00
2018-08-19T03:50:12.008Z,7.70
2018-08-19T03:52:43.409Z,8.70
2018-08-19T03:55:30.480Z,9.13
2018-08-19T03:58:05.409Z,9.30
2018-08-19T04:00:38.087Z,8.17
2018-08-19T04:03:19.004Z,8.20
2018-08-19T04:05:52.044Z,9.20
2018-08-19T04:08:20.552Z,8.30
2018-08-19T04:10:49.525Z,9.20
2018-08-19T04:13:37.277Z,9.50
2018-08-19T04:16:07.132Z,8.67
2018-08-19T04:18:37.642Z,9.47
2018-08-19T04:21:10.936Z,9.20
2018-08-19T04:23:41.973Z,9.23
2018-08-19T04:26:10.563Z,9.50
2018-08-19T04:28:40.221Z,9.07
2018-08-19T04:31:24.856Z,8.97
2018-08-19T04:33:54.102Z,9.80
2018-08-19T04:36:23.805Z,8.97
2018-08-19T04:38:53.308Z,10.20
2018-08-19T04:41:21.860Z,9.23
2018-08-19T04:43:50.412Z,9.70
2018-08-19T04:46:18.928Z,10.17
2018-08-19T04:48:48.313Z,10.23
2018-08-19T04:51:16.951Z,9.70
2018-08-19T04:53:45.548Z,10.67
2018-08-19T04:56:14.061Z,11.70
2018-08-19T04:58:42.649Z,11.40
2018-08-19T05:01:12.310Z,12.67
2018-08-19T05:03:43.482Z,11.13
2018-08-19T05:06:11.938Z,11.10
2018-08-19T05:08:40.528Z,12.57
2018-08-19T05:11:09.082Z,11.33
2018-08-19T05:13:37.727Z,12.47
2018-08-19T05:16:06.285Z,11.50
2018-08-19T05:18:34.850Z,12.47
2018-08-19T05:21:08.601Z,12.30
2018-08-19T05:23:37.101Z,11.93
2018-08-19T05:26:05.683Z,11.53
2018-08-19T05:28:34.305Z,12.87
2018-08-19T05:31:02.821Z,11.50
2018-08-19T05:33:31.508Z,11.10
2018-08-19T05:36:00.100Z,12.30
2018-08-19T05:38:32.248Z,12.17
2018-08-19T05:41:01.994Z,12.37
2018-08-19T05:43:31.372Z,12.57
2018-08-19T05:46:01.097Z,12.77
2018-08-19T05:48:29.703Z,11.77
2018-08-19T05:50:58.543Z,12.33
2018-08-19T05:53:27.111Z,13.43
2018-08-19T05:55:55.641Z,12.33
2018-08-19T05:58:24.238Z,12.27
2018-08-19T06:01:01.173Z,11.97
2018-08-19T06:03:30.232Z,11.73
2018-08-19T06:05:59.457Z,12.93
2018-08-19T06:08:28.093Z,12.53
2018-08-19T06:10:56.583Z,12.20
2018-08-19T06:13:27.408Z,12.53
2018-08-19T06:15:56.074Z,12.20
2018-08-19T06:18:24.649Z,12.40
2018-08-19T06:20:53.189Z,13.40
2018-08-19T06:23:22.107Z,12.40
2018-08-19T06:25:50.658Z,12.37
2018-08-19T06:28:20.165Z,11.30
2018-08-19T06:30:48.754Z,11.03
2018-08-19T06:33:17.458Z,11.97
2018-08-19T06:35:46.045Z,10.83
2018-08-19T06:38:14.563Z,11.27
2018-08-19T06:40:43.076Z,11.37
2018-08-19T06:43:11.676Z,10.80
2018-08-19T06:45:40.211Z,10.40
2018-08-19T06:48:08.864Z,11.47
2018-08-19T06:50:37.454Z,11.97
2018-08-19T06:53:05.990Z,11.57
2018-08-19T06:55:34.620Z,11.97
2018-08-19T06:58:03.154Z,11.13
2018-08-19T07:00:32.566Z,10.63
2018-08-19T07:03:02.490Z,10.57
2018-08-19T07:05:31.676Z,10.63
2018-08-19T07:08:01.540Z,11.00
2018-08-19T07:10:35.444Z,11.47
2018-08-19T07:13:20.465Z,11.03
2018-08-19T07:15:49.026Z,11.03
2018-08-19T07:18:17.631Z,11.40
2018-08-19T07:20:46.176Z,11.10
2018-08-19T07:23:14.918Z,9.67
2018-08-19T07:25:44.688Z,10.53
2018-08-19T07:28:18.036Z,11.60
2018-08-19T07:30:46.657Z,11.13
2018-08-19T07:33:15.989Z,11.00
2018-08-19T07:35:45.284Z,11.80
2018-08-19T07:38:14.444Z,11.47
2018-08-19T07:40:43.002Z,10.97
2018-08-19T07:43:11.580Z,11.17
2018-08-19T07:45:40.120Z,10.83
2018-08-19T07:48:08.890Z,11.10
2018-08-19T07:50:38.405Z,10.60
2018-08-19T07:53:07.058Z,11.67
2018-08-19T07:55:36.437Z,10.77
2018-08-19T07:58:05.101Z,10.77
2018-08-19T08:00:39.061Z,11.13
2018-08-19T08:03:08.427Z,10.60
2018-08-19T08:05:42.692Z,10.70
2018-08-19T08:08:11.207Z,9.80
2018-08-19T08:10:40.347Z,9.60
2018-08-19T08:13:12.571Z,10.07
2018-08-19T08:15:46.576Z,10.00
2018-08-19T08:18:15.749Z,9.77
2018-08-19T08:20:44.281Z,8.73
2018-08-19T08:23:24.248Z,9.50
2018-08-19T08:25:57.090Z,9.63
2018-08-19T08:28:26.667Z,10.57
2018-08-19T08:30:55.294Z,9.60
2018-08-19T08:33:24.576Z,10.20
2018-08-19T08:35:57.436Z,10.07
2018-08-19T08:38:26.228Z,8.90
2018-08-19T08:40:55.481Z,9.30
2018-08-19T08:43:24.171Z,8.43
2018-08-19T08:45:55.199Z,7.30
2018-08-19T08:48:23.713Z,7.13
2018-08-19T08:50:52.284Z,7.20
2018-08-19T08:53:20.870Z,6.03
2018-08-19T08:55:49.328Z,8.10
2018-08-19T08:58:17.920Z,5.57
2018-08-19T09:00:46.602Z,6.97
2018-08-19T09:03:15.166Z,7.07
2018-08-19T09:05:43.837Z,7.43
2018-08-19T09:08:12.391Z,7.07
2018-08-19T09:10:40.963Z,6.43
2018-08-19T09:13:09.555Z,7.50
2018-08-19T09:15:38.056Z,7.23
2018-08-19T09:18:06.701Z,6.97
2018-08-19T09:20:35.247Z,6.77
2018-08-19T09:23:03.907Z,7.97
2018-08-19T09:25:32.409Z,6.50
2018-08-19T09:28:02.662Z,6.07
2018-08-19T09:30:39.814Z,6.97
2018-08-19T09:33:08.582Z,7.90
2018-08-19T09:35:38.158Z,7.23
2018-08-19T09:38:14.513Z,7.07
2018-08-19T09:40:43.487Z,6.73
2018-08-19T09:43:12.212Z,6.87
2018-08-19T09:45:41.029Z,6.70
2018-08-19T09:48:10.146Z,6.57
2018-08-19T09:50:39.600Z,5.83
2018-08-19T09:53:08.227Z,6.13
2018-08-19T09:55:48.254Z,6.00
2018-08-19T09:58:19.474Z,5.07
2018-08-19T10:00:53.800Z,5.60
2018-08-19T10:03:22.312Z,5.03
2018-08-19T10:05:51.377Z,4.67
2018-08-19T10:08:23.939Z,4.77
2018-08-19T10:10:55.852Z,4.17
2018-08-19T10:13:24.865Z,3.50
2018-08-19T10:15:53.721Z,3.67
2018-08-19T10:18:24.109Z,3.63
2018-08-19T10:20:54.199Z,3.20
2018-08-19T10:23:23.804Z,2.80
2018-08-19T10:25:52.956Z,3.10
2018-08-19T10:28:25.843Z,2.23
2018-08-19T10:30:59.166Z,2.40
2018-08-19T10:33:27.742Z,2.40
2018-08-19T10:35:58.430Z,2.77
2018-08-19T10:38:28.426Z,2.33
2018-08-19T10:41:05.451Z,3.27
2018-08-19T10:43:34.144Z,3.90
2018-08-19T10:46:02.796Z,3.70
2018-08-19T10:48:31.486Z,4.10
2018-08-19T10:51:02.727Z,4.50
2018-08-19T10:53:31.259Z,4.60
2018-08-19T10:56:01.821Z,3.83
2018-08-19T10:58:30.520Z,3.83
2018-08-19T11:00:59.077Z,4.63
2018-08-19T11:03:39.364Z,5.07
2018-08-19T11:06:07.907Z,4.60
2018-08-19T11:08:39.583Z,5.17
2018-08-19T11:11:08.215Z,5.23
2018-08-19T11:13:36.741Z,5.27
2018-08-19T11:16:06.951Z,5.83
2018-08-19T11:18:40.988Z,5.37
2018-08-19T11:21:11.225Z,4.90
2018-08-19T11:23:42.322Z,5.17
2018-08-19T11:26:11.295Z,5.43
2018-08-19T11:28:44.618Z,4.47
2018-08-19T11:31:36.413Z,4.73
2018-08-19T11:34:07.364Z,4.80
2018-08-19T11:36:41.204Z,4.37
2018-08-19T11:39:12.473Z,4.10
2018-08-19T11:41:41.138Z,4.43
2018-08-19T11:44:13.570Z,4.47
2018-08-19T11:46:43.063Z,4.30
2018-08-19T11:49:16.362Z,4.63
2018-08-19T11:52:00.095Z,5.77
2018-08-19T11:54:29.365Z,4.17
2018-08-19T11:57:07.235Z,4.47
2018-08-19T11:59:51.143Z,4.47
2018-08-19T12:02:23.192Z,4.93
2018-08-19T12:04:51.945Z,4.30
2018-08-19T12:07:20.724Z,4.67
2018-08-19T12:10:07.073Z,4.60
2018-08-19T12:12:46.722Z,4.40
2018-08-19T12:15:15.305Z,4.83
2018-08-19T12:17:44.270Z,4.83
2018-08-19T12:20:12.801Z,4.50
2018-08-19T12:22:43.596Z,5.40
2018-08-19T12:25:12.146Z,5.00
2018-08-19T12:27:40.937Z,5.60
2018-08-19T12:30:14.553Z,6.03
2018-08-19T12:32:43.166Z,5.87
2018-08-19T12:35:11.766Z,6.03
2018-08-19T12:37:40.390Z,5.57
2018-08-19T12:40:09.029Z,4.70
2018-08-19T12:42:43.818Z,4.83
2018-08-19T12:45:12.501Z,5.03
2018-08-19T12:47:41.271Z,5.27
2018-08-19T12:50:12.629Z,4.57
2018-08-19T12:52:41.270Z,5.00
2018-08-19T12:55:11.219Z,4.93
2018-08-19T12:57:40.761Z,4.27
2018-08-19T13:00:18.693Z,4.80
2018-08-19T13:02:48.939Z,3.90
2018-08-19T13:05:18.512Z,4.40
2018-08-19T13:07:47.251Z,3.77
2018-08-19T13:10:16.133Z,4.87
2018-08-19T13:12:56.548Z,4.60
2018-08-19T13:15:26.584Z,4.93
2018-08-19T13:17:55.103Z,5.20
2018-08-19T13:20:23.901Z,4.87
2018-08-19T13:22:57.883Z,4.80
2018-08-19T13:25:26.486Z,5.20
2018-08-19T13:27:55.092Z,4.87
2018-08-19T13:30:24.905Z,4.60
2018-08-19T13:32:53.880Z,5.67
2018-08-19T13:35:22.985Z,5.30
2018-08-19T13:37:51.804Z,4.70
2018-08-19T13:40:22.106Z,4.73
2018-08-19T13:42:50.684Z,5.53
2018-08-19T13:45:20.534Z,5.10
2018-08-19T13:47:50.524Z,5.20
2018-08-19T13:50:20.082Z,4.90
2018-08-19T13:52:48.790Z,5.27
2018-08-19T13:55:18.692Z,4.80
2018-08-19T13:57:47.685Z,5.57
2018-08-19T14:00:20.957Z,4.80
2018-08-19T14:02:52.640Z,5.03
2018-08-19T14:05:21.248Z,4.47
2018-08-19T14:07:50.085Z,5.60
2018-08-19T14:10:19.142Z,4.90
2018-08-19T14:12:48.139Z,5.50
2018-08-19T14:15:17.954Z,5.90
2018-08-19T14:17:46.933Z,4.70
2018-08-19T14:20:15.591Z,4.90
2018-08-19T14:22:44.219Z,5.00
2018-08-19T14:25:13.126Z,4.87
2018-08-19T14:27:42.088Z,4.93
2018-08-19T14:30:11.862Z,5.70
2018-08-19T14:32:45.129Z,4.70
2018-08-19T14:35:13.901Z,4.17
2018-08-19T14:37:42.983Z,5.03
2018-08-19T14:40:16.272Z,5.27
2018-08-19T14:42:45.122Z,5.00
2018-08-19T14:45:13.744Z,5.13
2018-08-19T14:47:42.833Z,5.40
2018-08-19T14:50:14.134Z,6.07
2018-08-19T14:52:42.838Z,6.43
2018-08-19T14:55:11.668Z,6.43
2018-08-19T14:57:40.938Z,6.40
2018-08-19T15:00:12.641Z,7.30
2018-08-19T15:02:41.539Z,9.07
2018-08-19T15:05:13.787Z,8.80
2018-08-19T15:07:42.447Z,8.97
2018-08-19T15:10:16.003Z,7.87
2018-08-19T15:12:45.016Z,8.07
2018-08-19T15:15:13.625Z,8.07
2018-08-19T15:17:46.451Z,7.63
2018-08-19T15:20:19.595Z,8.43
2018-08-19T15:22:48.659Z,9.67
2018-08-19T15:25:17.669Z,8.30
2018-08-19T15:27:51.705Z,8.17
2018-08-19T15:30:25.812Z,9.00
2018-08-19T15:32:55.038Z,9.37
2018-08-19T15:35:23.643Z,9.80
2018-08-19T15:37:52.270Z,9.10
2018-08-19T15:40:32.417Z,8.50
2018-08-19T15:43:01.688Z,8.53
2018-08-19T15:45:31.845Z,8.40
2018-08-19T15:48:01.164Z,8.67
2018-08-19T15:50:31.316Z,8.63
2018-08-19T15:53:01.131Z,8.83
2018-08-19T15:55:29.916Z,8.90
2018-08-19T15:58:01.881Z,8.67
2018-08-19T16:00:33.229Z,8.47
2018-08-19T16:03:02.810Z,7.73
2018-08-19T16:05:31.979Z,7.57
2018-08-19T16:08:00.779Z,8.63
2018-08-19T16:10:30.576Z,7.80
2018-08-19T16:13:00.852Z,7.30
2018-08-19T16:15:31.543Z,7.13
2018-08-19T16:18:00.473Z,7.20
2018-08-19T16:20:29.482Z,7.23
2018-08-19T16:22:59.185Z,7.97
2018-08-19T16:25:31.027Z,7.90
2018-08-19T16:28:00.032Z,7.73
2018-08-19T16:30:28.553Z,7.43
2018-08-19T16:32:57.213Z,7.03
2018-08-19T16:35:26.234Z,7.07
2018-08-19T16:37:54.784Z,7.00
2018-08-19T16:40:23.667Z,7.10
2018-08-19T16:42:52.308Z,6.77
2018-08-19T16:45:22.213Z,6.47
2018-08-19T16:47:51.110Z,5.87
2018-08-19T16:50:19.870Z,5.17
2018-08-19T16:52:48.658Z,4.90
2018-08-19T16:55:17.827Z,4.53
2018-08-19T16:57:46.540Z,4.87
2018-08-19T17:00:15.128Z,4.50
2018-08-19T17:02:43.991Z,3.87
2018-08-19T17:05:36.447Z,4.07
2018-08-19T17:08:05.492Z,4.80
2018-08-19T17:10:34.267Z,4.87
2018-08-19T17:13:02.801Z,4.40
2018-08-19T17:15:31.708Z,3.73
2018-08-19T17:18:00.760Z,3.30
2018-08-19T17:20:30.497Z,3.30
2018-08-19T17:22:59.359Z,3.30
2018-08-19T17:25:28.520Z,3.43
2018-08-19T17:27:59.697Z,3.27
2018-08-19T17:30:28.548Z,3.23
2018-08-19T17:33:01.834Z,3.60
2018-08-19T17:35:35.221Z,3.50
2018-08-19T17:38:04.099Z,3.70
2018-08-19T17:40:33.302Z,3.30
2018-08-19T17:43:03.505Z,3.53
2018-08-19T17:45:32.292Z,3.77
2018-08-19T17:48:02.401Z,3.47
2018-08-19T17:50:31.191Z,3.00
2018-08-19T17:53:01.003Z,3.90
2018-08-19T17:55:29.570Z,3.80
2018-08-19T17:58:00.041Z,2.83
2018-08-19T18:00:28.652Z,3.10
2018-08-19T18:02:57.277Z,3.13
2018-08-19T18:05:26.465Z,4.27
2018-08-19T18:07:55.902Z,3.33
2018-08-19T18:10:24.774Z,3.77
2018-08-19T18:12:54.104Z,3.40
2018-08-19T18:15:22.693Z,3.47
2018-08-19T18:17:59.187Z,4.00
2018-08-19T18:20:34.305Z,3.23
2018-08-19T18:23:03.738Z,3.47
2018-08-19T18:25:32.754Z,3.03
2018-08-19T18:28:10.895Z,3.40
2018-08-19T18:30:39.929Z,3.07
2018-08-19T18:33:08.539Z,2.77
2018-08-19T18:35:37.314Z,2.67
2018-08-19T18:38:10.984Z,2.50
2018-08-19T18:40:39.700Z,2.63
2018-08-19T18:43:08.266Z,2.70
2018-08-19T18:45:37.047Z,3.90
2018-08-19T18:48:06.369Z,2.57
2018-08-19T18:50:36.549Z,2.50
2018-08-19T18:53:05.771Z,2.50
2018-08-19T18:55:34.336Z,2.83
2018-08-19T18:58:03.096Z,2.87
2018-08-19T19:00:33.701Z,3.07
2018-08-19T19:03:02.218Z,2.87
2018-08-19T19:05:40.846Z,2.90
2018-08-19T19:08:11.734Z,2.77
2018-08-19T19:10:43.717Z,2.90
2018-08-19T19:13:12.887Z,2.90
2018-08-19T19:15:41.446Z,2.87
2018-08-19T19:18:13.093Z,3.20
2018-08-19T19:20:48.021Z,2.80
2018-08-19T19:23:17.348Z,2.80
2018-08-19T19:25:47.189Z,2.67
2018-08-19T19:28:16.633Z,2.60
2018-08-19T19:30:45.212Z,2.50
2018-08-19T19:33:14.142Z,2.73
2018-08-19T19:35:43.286Z,2.53
2018-08-19T19:38:12.421Z,2.57
2018-08-19T19:40:41.378Z,2.83
2018-08-19T19:43:10.680Z,2.60
2018-08-19T19:45:44.905Z,2.80
2018-08-19T19:48:15.025Z,3.13
2018-08-19T19:50:43.948Z,3.23
2018-08-19T19:53:13.484Z,2.83
2018-08-19T19:55:42.795Z,3.00
2018-08-19T19:58:12.530Z,2.53
2018-08-19T20:00:53.911Z,2.37
2018-08-19T20:03:23.997Z,2.90
2018-08-19T20:05:53.445Z,2.37
2018-08-19T20:08:25.093Z,2.67
2018-08-19T20:10:53.610Z,2.30
2018-08-19T20:13:22.852Z,2.27
2018-08-19T20:15:52.394Z,2.77
2018-08-19T20:18:21.203Z,2.77
2018-08-19T20:20:49.790Z,2.80
2018-08-19T20:23:25.833Z,3.07
2018-08-19T20:25:55.534Z,2.60
2018-08-19T20:28:24.185Z,3.17
2018-08-19T20:30:52.905Z,2.47
2018-08-19T20:33:26.860Z,2.93
2018-08-19T20:35:56.295Z,2.70
2018-08-19T20:38:25.760Z,3.20
2018-08-19T20:40:55.334Z,3.20
2018-08-19T20:43:24.659Z,3.40
2018-08-19T20:45:53.302Z,3.20
2018-08-19T20:48:22.637Z,3.10
2018-08-19T20:50:51.344Z,3.30
2018-08-19T20:53:19.966Z,3.23
2018-08-19T20:55:49.012Z,3.30
2018-08-19T20:58:17.676Z,3.63
2018-08-19T21:00:46.141Z,3.80
2018-08-19T21:03:14.641Z,3.47
2018-08-19T21:05:43.157Z,3.63
2018-08-19T21:08:13.437Z,4.30
2018-08-19T21:10:43.137Z,3.80
2018-08-19T21:13:12.872Z,3.93
2018-08-19T21:15:42.858Z,4.53
2018-08-19T21:18:11.690Z,4.03
2018-08-19T21:20:40.288Z,4.10
2018-08-19T21:23:09.128Z,4.47
2018-08-19T21:25:47.777Z,3.47
2018-08-19T21:28:16.860Z,4.37
2018-08-19T21:30:45.352Z,4.23
2018-08-19T21:33:13.823Z,4.63
2018-08-19T21:35:47.692Z,4.10
2018-08-19T21:38:16.957Z,4.63
2018-08-19T21:40:45.840Z,5.30
2018-08-19T21:43:14.461Z,4.70
2018-08-19T21:45:43.035Z,5.20
2018-08-19T21:48:13.652Z,4.73
2018-08-19T21:50:42.381Z,5.77
2018-08-19T21:53:12.490Z,5.20
2018-08-19T21:55:42.385Z,5.07
2018-08-19T21:58:10.953Z,5.13
2018-08-19T22:00:41.990Z,5.67
2018-08-19T22:03:18.231Z,5.73
2018-08-19T22:05:47.563Z,4.63
2018-08-19T22:08:16.133Z,5.83
2018-08-19T22:10:45.709Z,5.13
2018-08-19T22:13:14.223Z,5.70
2018-08-19T22:15:44.575Z,5.20
2018-08-19T22:18:17.977Z,6.20
2018-08-19T22:21:24.494Z,5.73
2018-08-19T22:23:55.646Z,5.43
2018-08-19T22:26:24.819Z,4.97
2018-08-19T22:29:09.423Z,5.57
2018-08-19T22:31:37.950Z,5.87
2018-08-19T22:34:07.129Z,5.40
2018-08-19T22:36:35.797Z,4.87
2018-08-19T22:39:06.783Z,5.87
2018-08-19T22:41:35.275Z,5.60
2018-08-19T22:44:03.769Z,5.87
2018-08-19T22:46:32.219Z,5.40
2018-08-19T22:49:00.698Z,5.57
2018-08-19T22:51:31.785Z,5.53
2018-08-19T22:54:00.312Z,6.53
2018-08-19T22:56:28.830Z,6.17
2018-08-19T22:58:57.296Z,6.73
2018-08-19T23:01:31.101Z,6.93
2018-08-19T23:04:01.845Z,6.70
2018-08-19T23:06:31.103Z,7.10
2018-08-19T23:08:59.764Z,6.43
2018-08-19T23:11:33.321Z,6.70
2018-08-19T23:14:12.909Z,6.80
2018-08-19T23:16:41.630Z,6.57
2018-08-19T23:19:10.293Z,7.27
2018-08-19T23:21:38.755Z,7.33
2018-08-19T23:24:07.313Z,7.97
2018-08-19T23:26:36.190Z,7.57
2018-08-19T23:29:05.081Z,7.87
2018-08-19T23:31:33.555Z,7.80
2018-08-19T23:34:02.153Z,8.37
2018-08-19T23:36:30.604Z,7.87
2018-08-19T23:38:59.242Z,7.73
2018-08-19T23:41:27.823Z,7.43
2018-08-19T23:43:56.361Z,8.50
2018-08-19T23:46:25.214Z,7.67
2018-08-19T23:48:53.928Z,7.80
2018-08-19T23:51:27.633Z,8.47
2018-08-19T23:53:56.147Z,8.33
2018-08-19T23:56:24.772Z,8.60
2018-08-19T23:58:53.857Z,8.97
